sensor_id;sensor_type;location;lat;lon;timestamp;temperature;humidity
16625;DHT22;8426;48.496;9.098;2022-12-18T00:02:15;-13.10;99.90
16625;DHT22;8426;48.496;9.098;2022-12-18T00:07:18;-12.90;99.90
16625;DHT22;8426;48.496;9.098;2022-12-18T00:12:21;-13.10;99.90
16625;DHT22;8426;48.496;9.098;2022-12-18T00:17:26;-13.40;99.90
16625;DHT22;8426;48.496;9.098;2022-12-18T00:22:29;-13.40;99.90
16625;DHT22;8426;48.496;9.098;2022-12-18T00:27:33;-13.20;99.90
16625;DHT22;8426;48.496;9.098;2022-12-18T00:32:37;-13.10;99.90
16625;DHT22;8426;48.496;9.098;2022-12-18T00:37:41;-13.10;99.90
16625;DHT22;8426;48.496;9.098;2022-12-18T00:42:44;-13.10;99.90
16625;DHT22;8426;48.496;9.098;2022-12-18T00:48:01;-13.20;99.90
16625;DHT22;8426;48.496;9.098;2022-12-18T00:53:05;-13.30;99.90
16625;DHT22;8426;48.496;9.098;2022-12-18T00:58:10;-13.30;99.90
16625;DHT22;8426;48.496;9.098;2022-12-18T01:03:15;-13.40;99.90
16625;DHT22;8426;48.496;9.098;2022-12-18T01:08:18;-13.60;99.90
16625;DHT22;8426;48.496;9.098;2022-12-18T01:13:22;-13.60;99.90
16625;DHT22;8426;48.496;9.098;2022-12-18T01:18:26;-13.50;99.90
16625;DHT22;8426;48.496;9.098;2022-12-18T01:23:29;-13.40;99.90
16625;DHT22;8426;48.496;9.098;2022-12-18T01:28:33;-13.50;99.90
16625;DHT22;8426;48.496;9.098;2022-12-18T01:33:37;-13.70;99.90
16625;DHT22;8426;48.496;9.098;2022-12-18T01:38:41;-13.90;99.90
16625;DHT22;8426;48.496;9.098;2022-12-18T01:43:51;-13.90;99.90
16625;DHT22;8426;48.496;9.098;2022-12-18T01:48:58;-14.00;99.90
16625;DHT22;8426;48.496;9.098;2022-12-18T01:54:02;-13.90;99.90
16625;DHT22;8426;48.496;9.098;2022-12-18T01:59:08;-13.80;99.90
16625;DHT22;8426;48.496;9.098;2022-12-18T02:04:22;-13.50;99.90
16625;DHT22;8426;48.496;9.098;2022-12-18T02:09:29;-13.30;99.90
16625;DHT22;8426;48.496;9.098;2022-12-18T02:14:39;-13.20;99.90
16625;DHT22;8426;48.496;9.098;2022-12-18T02:19:58;-13.10;99.90
16625;DHT22;8426;48.496;9.098;2022-12-18T02:25:17;-13.10;99.90
16625;DHT22;8426;48.496;9.098;2022-12-18T02:30:26;-13.00;99.90
16625;DHT22;8426;48.496;9.098;2022-12-18T02:35:33;-13.00;99.90
16625;DHT22;8426;48.496;9.098;2022-12-18T02:40:38;-13.00;99.90
16625;DHT22;8426;48.496;9.098;2022-12-18T02:45:49;-12.90;99.90
16625;DHT22;8426;48.496;9.098;2022-12-18T02:50:59;-12.80;99.90
16625;DHT22;8426;48.496;9.098;2022-12-18T02:56:11;-12.70;99.90
16625;DHT22;8426;48.496;9.098;2022-12-18T03:01:24;-12.50;99.90
16625;DHT22;8426;48.496;9.098;2022-12-18T03:06:35;-12.30;99.90
16625;DHT22;8426;48.496;9.098;2022-12-18T03:11:41;-12.20;99.90
16625;DHT22;8426;48.496;9.098;2022-12-18T03:17:09;-12.10;99.90
16625;DHT22;8426;48.496;9.098;2022-12-18T03:22:13;-12.10;99.90
16625;DHT22;8426;48.496;9.098;2022-12-18T03:27:20;-12.30;99.90
16625;DHT22;8426;48.496;9.098;2022-12-18T03:32:28;-12.40;99.90
16625;DHT22;8426;48.496;9.098;2022-12-18T03:37:34;-12.40;99.90
16625;DHT22;8426;48.496;9.098;2022-12-18T03:42:45;-12.30;99.90
16625;DHT22;8426;48.496;9.098;2022-12-18T03:47:58;-12.40;99.90
16625;DHT22;8426;48.496;9.098;2022-12-18T03:53:09;-12.40;99.90
16625;DHT22;8426;48.496;9.098;2022-12-18T03:58:18;-12.50;99.90
16625;DHT22;8426;48.496;9.098;2022-12-18T04:03:29;-12.50;99.90
16625;DHT22;8426;48.496;9.098;2022-12-18T04:08:34;-12.50;99.90
16625;DHT22;8426;48.496;9.098;2022-12-18T04:13:38;-12.40;99.90
16625;DHT22;8426;48.496;9.098;2022-12-18T04:18:44;-12.30;99.90
16625;DHT22;8426;48.496;9.098;2022-12-18T04:23:47;-12.10;99.90
16625;DHT22;8426;48.496;9.098;2022-12-18T04:28:51;-12.10;99.90
16625;DHT22;8426;48.496;9.098;2022-12-18T04:33:55;-12.10;99.90
16625;DHT22;8426;48.496;9.098;2022-12-18T04:38:58;-12.20;99.90
16625;DHT22;8426;48.496;9.098;2022-12-18T04:44:02;-12.30;99.90
16625;DHT22;8426;48.496;9.098;2022-12-18T04:49:07;-12.40;99.90
16625;DHT22;8426;48.496;9.098;2022-12-18T04:54:12;-12.40;99.90
16625;DHT22;8426;48.496;9.098;2022-12-18T04:59:15;-12.40;99.90
16625;DHT22;8426;48.496;9.098;2022-12-18T05:04:20;-12.40;99.90
16625;DHT22;8426;48.496;9.098;2022-12-18T05:09:23;-12.40;99.90
16625;DHT22;8426;48.496;9.098;2022-12-18T05:14:26;-12.40;99.90
16625;DHT22;8426;48.496;9.098;2022-12-18T05:19:32;-12.40;99.90
16625;DHT22;8426;48.496;9.098;2022-12-18T05:24:36;-12.40;99.90
16625;DHT22;8426;48.496;9.098;2022-12-18T05:29:39;-12.40;99.90
16625;DHT22;8426;48.496;9.098;2022-12-18T05:34:43;-12.40;99.90
16625;DHT22;8426;48.496;9.098;2022-12-18T05:39:47;-12.40;99.90
16625;DHT22;8426;48.496;9.098;2022-12-18T05:44:50;-12.50;99.90
16625;DHT22;8426;48.496;9.098;2022-12-18T05:49:55;-12.70;99.90
16625;DHT22;8426;48.496;9.098;2022-12-18T05:54:58;-12.80;99.90
16625;DHT22;8426;48.496;9.098;2022-12-18T06:00:02;-12.90;99.90
16625;DHT22;8426;48.496;9.098;2022-12-18T06:05:07;-13.10;99.90
16625;DHT22;8426;48.496;9.098;2022-12-18T06:10:11;-13.20;99.90
16625;DHT22;8426;48.496;9.098;2022-12-18T06:15:15;-13.30;99.90
16625;DHT22;8426;48.496;9.098;2022-12-18T06:20:20;-13.50;99.90
16625;DHT22;8426;48.496;9.098;2022-12-18T06:25:23;-13.70;99.90
16625;DHT22;8426;48.496;9.098;2022-12-18T06:30:27;-13.80;99.90
16625;DHT22;8426;48.496;9.098;2022-12-18T06:35:31;-13.90;99.90
16625;DHT22;8426;48.496;9.098;2022-12-18T06:40:36;-14.00;99.90
16625;DHT22;8426;48.496;9.098;2022-12-18T06:45:40;-14.20;99.90
16625;DHT22;8426;48.496;9.098;2022-12-18T06:50:45;-14.30;99.90
16625;DHT22;8426;48.496;9.098;2022-12-18T06:55:48;-14.40;99.90
16625;DHT22;8426;48.496;9.098;2022-12-18T07:00:51;-14.50;99.90
16625;DHT22;8426;48.496;9.098;2022-12-18T07:05:56;-14.60;99.90
16625;DHT22;8426;48.496;9.098;2022-12-18T07:11:03;-14.60;99.90
16625;DHT22;8426;48.496;9.098;2022-12-18T07:16:09;-14.70;99.90
16625;DHT22;8426;48.496;9.098;2022-12-18T07:21:23;-14.80;99.90
16625;DHT22;8426;48.496;9.098;2022-12-18T07:26:29;-14.70;99.90
16625;DHT22;8426;48.496;9.098;2022-12-18T07:31:32;-14.70;99.90
16625;DHT22;8426;48.496;9.098;2022-12-18T07:36:37;-14.50;99.90
16625;DHT22;8426;48.496;9.098;2022-12-18T07:41:41;-14.40;99.90
16625;DHT22;8426;48.496;9.098;2022-12-18T07:46:48;-14.30;99.90
16625;DHT22;8426;48.496;9.098;2022-12-18T07:51:54;-14.20;99.90
16625;DHT22;8426;48.496;9.098;2022-12-18T07:56:57;-14.00;99.90
16625;DHT22;8426;48.496;9.098;2022-12-18T08:02:01;-13.90;99.90
16625;DHT22;8426;48.496;9.098;2022-12-18T08:07:06;-13.90;99.90
16625;DHT22;8426;48.496;9.098;2022-12-18T08:12:09;-13.70;99.90
16625;DHT22;8426;48.496;9.098;2022-12-18T08:17:12;-13.60;99.90
16625;DHT22;8426;48.496;9.098;2022-12-18T08:22:17;-13.40;99.90
16625;DHT22;8426;48.496;9.098;2022-12-18T08:27:20;-13.30;99.90
16625;DHT22;8426;48.496;9.098;2022-12-18T08:32:31;-13.00;99.90
16625;DHT22;8426;48.496;9.098;2022-12-18T08:37:37;-12.70;99.90
16625;DHT22;8426;48.496;9.098;2022-12-18T08:42:40;-12.60;99.90
16625;DHT22;8426;48.496;9.098;2022-12-18T08:48:01;-12.40;99.90
16625;DHT22;8426;48.496;9.098;2022-12-18T08:53:06;-12.10;99.90
16625;DHT22;8426;48.496;9.098;2022-12-18T08:58:09;-11.80;99.90
16625;DHT22;8426;48.496;9.098;2022-12-18T09:03:18;-11.60;99.90
16625;DHT22;8426;48.496;9.098;2022-12-18T09:08:26;-11.40;99.90
16625;DHT22;8426;48.496;9.098;2022-12-18T09:13:29;-11.30;99.90
16625;DHT22;8426;48.496;9.098;2022-12-18T09:18:32;-11.10;99.90
16625;DHT22;8426;48.496;9.098;2022-12-18T09:23:37;-10.90;99.90
16625;DHT22;8426;48.496;9.098;2022-12-18T09:28:40;-10.60;99.90
16625;DHT22;8426;48.496;9.098;2022-12-18T09:33:44;-10.50;99.90
16625;DHT22;8426;48.496;9.098;2022-12-18T09:38:49;-10.40;99.90
16625;DHT22;8426;48.496;9.098;2022-12-18T09:43:53;-10.20;99.90
16625;DHT22;8426;48.496;9.098;2022-12-18T09:49:01;-9.90;99.90
16625;DHT22;8426;48.496;9.098;2022-12-18T09:54:11;-9.60;99.90
16625;DHT22;8426;48.496;9.098;2022-12-18T09:59:21;-9.40;99.90
16625;DHT22;8426;48.496;9.098;2022-12-18T10:04:27;-9.30;99.90
16625;DHT22;8426;48.496;9.098;2022-12-18T10:09:38;-8.90;99.90
16625;DHT22;8426;48.496;9.098;2022-12-18T10:14:56;-8.70;99.90
16625;DHT22;8426;48.496;9.098;2022-12-18T10:20:05;-8.60;99.90
16625;DHT22;8426;48.496;9.098;2022-12-18T10:25:21;-8.30;99.90
16625;DHT22;8426;48.496;9.098;2022-12-18T10:30:26;-8.00;99.90
16625;DHT22;8426;48.496;9.098;2022-12-18T10:35:29;-7.80;99.90
16625;DHT22;8426;48.496;9.098;2022-12-18T10:40:48;-7.50;99.90
16625;DHT22;8426;48.496;9.098;2022-12-18T10:46:01;-7.30;99.90
16625;DHT22;8426;48.496;9.098;2022-12-18T10:51:05;-7.10;99.90
16625;DHT22;8426;48.496;9.098;2022-12-18T10:56:20;-6.80;99.90
16625;DHT22;8426;48.496;9.098;2022-12-18T11:01:24;-6.50;99.90
16625;DHT22;8426;48.496;9.098;2022-12-18T11:06:27;-6.00;99.90
16625;DHT22;8426;48.496;9.098;2022-12-18T11:11:33;-5.60;99.90
16625;DHT22;8426;48.496;9.098;2022-12-18T11:16:43;-4.90;99.90
16625;DHT22;8426;48.496;9.098;2022-12-18T11:22:19;-4.20;99.90
16625;DHT22;8426;48.496;9.098;2022-12-18T11:27:25;-3.80;99.90
16625;DHT22;8426;48.496;9.098;2022-12-18T11:32:34;-3.60;99.90
16625;DHT22;8426;48.496;9.098;2022-12-18T11:37:39;-3.80;99.90
16625;DHT22;8426;48.496;9.098;2022-12-18T11:42:50;-4.10;99.90
16625;DHT22;8426;48.496;9.098;2022-12-18T11:47:59;-4.00;99.90
16625;DHT22;8426;48.496;9.098;2022-12-18T11:53:04;-3.80;99.90
16625;DHT22;8426;48.496;9.098;2022-12-18T11:58:18;-3.50;99.90
16625;DHT22;8426;48.496;9.098;2022-12-18T12:04:10;-3.60;99.90
16625;DHT22;8426;48.496;9.098;2022-12-18T12:09:22;-3.10;99.90
16625;DHT22;8426;48.496;9.098;2022-12-18T12:14:41;-3.00;99.90
16625;DHT22;8426;48.496;9.098;2022-12-18T12:19:52;-2.70;99.90
16625;DHT22;8426;48.496;9.098;2022-12-18T12:25:12;-2.60;99.90
16625;DHT22;8426;48.496;9.098;2022-12-18T12:30:26;-2.50;99.90
16625;DHT22;8426;48.496;9.098;2022-12-18T12:35:46;-2.60;99.90
16625;DHT22;8426;48.496;9.098;2022-12-18T12:40:52;-2.70;99.90
16625;DHT22;8426;48.496;9.098;2022-12-18T12:46:06;-2.70;99.90
16625;DHT22;8426;48.496;9.098;2022-12-18T12:51:15;-2.70;99.90
16625;DHT22;8426;48.496;9.098;2022-12-18T12:56:20;-2.80;99.90
16625;DHT22;8426;48.496;9.098;2022-12-18T13:01:32;-2.80;99.90
16625;DHT22;8426;48.496;9.098;2022-12-18T13:06:43;-2.60;99.90
16625;DHT22;8426;48.496;9.098;2022-12-18T13:11:49;-2.90;99.90
16625;DHT22;8426;48.496;9.098;2022-12-18T13:17:29;-3.10;99.90
16625;DHT22;8426;48.496;9.098;2022-12-18T13:22:35;-2.90;99.90
16625;DHT22;8426;48.496;9.098;2022-12-18T13:27:57;-2.70;99.90
16625;DHT22;8426;48.496;9.098;2022-12-18T13:39:36;-2.80;99.90
16625;DHT22;8426;48.496;9.098;2022-12-18T13:44:40;-3.00;99.90
16625;DHT22;8426;48.496;9.098;2022-12-18T13:49:44;-3.20;99.90
16625;DHT22;8426;48.496;9.098;2022-12-18T13:54:51;-3.40;99.90
16625;DHT22;8426;48.496;9.098;2022-12-18T13:59:57;-3.50;99.90
16625;DHT22;8426;48.496;9.098;2022-12-18T14:05:00;-3.40;99.90
16625;DHT22;8426;48.496;9.098;2022-12-18T14:10:15;-3.40;99.90
16625;DHT22;8426;48.496;9.098;2022-12-18T14:15:41;-3.50;99.90
16625;DHT22;8426;48.496;9.098;2022-12-18T14:20:45;-3.70;99.90
16625;DHT22;8426;48.496;9.098;2022-12-18T14:25:55;-3.80;99.90
16625;DHT22;8426;48.496;9.098;2022-12-18T14:31:17;-4.00;99.90
16625;DHT22;8426;48.496;9.098;2022-12-18T14:36:22;-4.10;99.90
16625;DHT22;8426;48.496;9.098;2022-12-18T14:41:27;-4.20;99.90
16625;DHT22;8426;48.496;9.098;2022-12-18T14:46:34;-4.40;99.90
16625;DHT22;8426;48.496;9.098;2022-12-18T14:51:38;-4.60;99.90
16625;DHT22;8426;48.496;9.098;2022-12-18T14:56:45;-4.80;99.90
16625;DHT22;8426;48.496;9.098;2022-12-18T15:01:57;-5.00;99.90
16625;DHT22;8426;48.496;9.098;2022-12-18T15:07:11;-5.10;99.90
16625;DHT22;8426;48.496;9.098;2022-12-18T15:12:26;-5.30;99.90
16625;DHT22;8426;48.496;9.098;2022-12-18T15:17:31;-5.60;99.90
16625;DHT22;8426;48.496;9.098;2022-12-18T15:22:36;-5.90;99.90
16625;DHT22;8426;48.496;9.098;2022-12-18T15:27:47;-6.20;99.90
16625;DHT22;8426;48.496;9.098;2022-12-18T15:32:50;-6.50;99.90
16625;DHT22;8426;48.496;9.098;2022-12-18T15:37:54;-6.80;99.90
16625;DHT22;8426;48.496;9.098;2022-12-18T15:42:59;-7.00;99.90
16625;DHT22;8426;48.496;9.098;2022-12-18T15:48:21;-7.30;99.90
16625;DHT22;8426;48.496;9.098;2022-12-18T15:53:29;-7.50;99.90
16625;DHT22;8426;48.496;9.098;2022-12-18T15:58:34;-7.70;99.90
16625;DHT22;8426;48.496;9.098;2022-12-18T16:03:38;-7.90;99.90
16625;DHT22;8426;48.496;9.098;2022-12-18T16:08:43;-8.00;99.90
16625;DHT22;8426;48.496;9.098;2022-12-18T16:13:47;-8.10;99.90
16625;DHT22;8426;48.496;9.098;2022-12-18T16:18:52;-8.10;99.90
16625;DHT22;8426;48.496;9.098;2022-12-18T16:23:55;-8.00;99.90
16625;DHT22;8426;48.496;9.098;2022-12-18T16:29:00;-7.80;99.90
16625;DHT22;8426;48.496;9.098;2022-12-18T16:34:15;-7.70;99.90
16625;DHT22;8426;48.496;9.098;2022-12-18T16:39:24;-7.60;99.90
16625;DHT22;8426;48.496;9.098;2022-12-18T16:44:34;-7.50;99.90
16625;DHT22;8426;48.496;9.098;2022-12-18T16:49:38;-7.40;99.90
16625;DHT22;8426;48.496;9.098;2022-12-18T16:54:41;-7.30;99.90
16625;DHT22;8426;48.496;9.098;2022-12-18T16:59:48;-7.20;99.90
16625;DHT22;8426;48.496;9.098;2022-12-18T17:04:53;-7.00;99.90
16625;DHT22;8426;48.496;9.098;2022-12-18T17:09:56;-6.90;99.90
16625;DHT22;8426;48.496;9.098;2022-12-18T17:15:01;-6.70;99.90
16625;DHT22;8426;48.496;9.098;2022-12-18T17:20:05;-6.60;99.90
16625;DHT22;8426;48.496;9.098;2022-12-18T17:25:08;-6.50;99.90
16625;DHT22;8426;48.496;9.098;2022-12-18T17:30:14;-6.40;99.90
16625;DHT22;8426;48.496;9.098;2022-12-18T17:35:17;-6.30;99.90
16625;DHT22;8426;48.496;9.098;2022-12-18T17:40:21;-6.20;99.90
16625;DHT22;8426;48.496;9.098;2022-12-18T17:45:25;-6.10;99.90
16625;DHT22;8426;48.496;9.098;2022-12-18T17:50:30;-6.10;99.90
16625;DHT22;8426;48.496;9.098;2022-12-18T17:55:34;-6.10;99.90
16625;DHT22;8426;48.496;9.098;2022-12-18T18:00:39;-6.00;99.90
16625;DHT22;8426;48.496;9.098;2022-12-18T18:05:43;-6.00;99.90
16625;DHT22;8426;48.496;9.098;2022-12-18T18:10:47;-6.00;99.90
16625;DHT22;8426;48.496;9.098;2022-12-18T18:15:56;-6.00;99.90
16625;DHT22;8426;48.496;9.098;2022-12-18T18:21:03;-6.00;99.90
16625;DHT22;8426;48.496;9.098;2022-12-18T18:26:08;-6.00;99.90
16625;DHT22;8426;48.496;9.098;2022-12-18T18:31:13;-5.90;99.90
16625;DHT22;8426;48.496;9.098;2022-12-18T18:36:17;-5.90;99.90
16625;DHT22;8426;48.496;9.098;2022-12-18T18:41:20;-5.90;99.90
16625;DHT22;8426;48.496;9.098;2022-12-18T18:46:27;-5.80;99.90
16625;DHT22;8426;48.496;9.098;2022-12-18T18:51:31;-5.70;99.90
16625;DHT22;8426;48.496;9.098;2022-12-18T18:56:36;-5.70;99.90
16625;DHT22;8426;48.496;9.098;2022-12-18T19:02:01;-5.60;99.90
16625;DHT22;8426;48.496;9.098;2022-12-18T19:07:06;-5.60;99.90
16625;DHT22;8426;48.496;9.098;2022-12-18T19:12:09;-5.60;99.90
16625;DHT22;8426;48.496;9.098;2022-12-18T19:17:32;-5.60;99.90
16625;DHT22;8426;48.496;9.098;2022-12-18T19:22:36;-5.60;99.90
16625;DHT22;8426;48.496;9.098;2022-12-18T19:27:40;-5.60;99.90
16625;DHT22;8426;48.496;9.098;2022-12-18T19:32:46;-5.60;99.90
16625;DHT22;8426;48.496;9.098;2022-12-18T19:37:51;-5.60;99.90
16625;DHT22;8426;48.496;9.098;2022-12-18T19:42:54;-5.70;99.90
16625;DHT22;8426;48.496;9.098;2022-12-18T19:47:59;-5.80;99.90
16625;DHT22;8426;48.496;9.098;2022-12-18T19:53:05;-5.80;99.90
16625;DHT22;8426;48.496;9.098;2022-12-18T19:58:10;-5.70;99.90
16625;DHT22;8426;48.496;9.098;2022-12-18T20:03:15;-5.70;99.90
16625;DHT22;8426;48.496;9.098;2022-12-18T20:08:32;-5.70;99.90
16625;DHT22;8426;48.496;9.098;2022-12-18T20:13:35;-5.70;99.90
16625;DHT22;8426;48.496;9.098;2022-12-18T20:18:40;-5.60;99.90
16625;DHT22;8426;48.496;9.098;2022-12-18T20:23:45;-5.60;99.90
16625;DHT22;8426;48.496;9.098;2022-12-18T20:28:48;-5.50;99.90
16625;DHT22;8426;48.496;9.098;2022-12-18T20:33:54;-5.40;99.90
16625;DHT22;8426;48.496;9.098;2022-12-18T20:39:03;-5.30;99.90
16625;DHT22;8426;48.496;9.098;2022-12-18T20:44:12;-5.20;99.90
16625;DHT22;8426;48.496;9.098;2022-12-18T20:49:26;-5.10;99.90
16625;DHT22;8426;48.496;9.098;2022-12-18T20:54:29;-5.10;99.90
16625;DHT22;8426;48.496;9.098;2022-12-18T20:59:33;-5.00;99.90
16625;DHT22;8426;48.496;9.098;2022-12-18T21:04:38;-5.00;99.90
16625;DHT22;8426;48.496;9.098;2022-12-18T21:09:42;-5.10;99.90
16625;DHT22;8426;48.496;9.098;2022-12-18T21:14:45;-5.00;99.90
16625;DHT22;8426;48.496;9.098;2022-12-18T21:19:52;-4.80;99.90
16625;DHT22;8426;48.496;9.098;2022-12-18T21:24:55;-4.80;99.90
16625;DHT22;8426;48.496;9.098;2022-12-18T21:29:59;-4.80;99.90
16625;DHT22;8426;48.496;9.098;2022-12-18T21:35:04;-4.80;99.90
16625;DHT22;8426;48.496;9.098;2022-12-18T21:40:09;-4.80;99.90
16625;DHT22;8426;48.496;9.098;2022-12-18T21:45:13;-4.80;99.90
16625;DHT22;8426;48.496;9.098;2022-12-18T21:50:18;-4.80;99.90
16625;DHT22;8426;48.496;9.098;2022-12-18T21:55:21;-4.80;99.90
16625;DHT22;8426;48.496;9.098;2022-12-18T22:00:25;-4.80;99.90
16625;DHT22;8426;48.496;9.098;2022-12-18T22:05:30;-4.80;99.90
16625;DHT22;8426;48.496;9.098;2022-12-18T22:10:33;-4.70;99.90
16625;DHT22;8426;48.496;9.098;2022-12-18T22:15:37;-4.70;99.90
16625;DHT22;8426;48.496;9.098;2022-12-18T22:20:41;-4.60;99.90
16625;DHT22;8426;48.496;9.098;2022-12-18T22:25:45;-4.50;99.90
16625;DHT22;8426;48.496;9.098;2022-12-18T22:30:48;-4.50;99.90
16625;DHT22;8426;48.496;9.098;2022-12-18T22:36:03;-4.40;99.90
16625;DHT22;8426;48.496;9.098;2022-12-18T22:41:07;-4.40;99.90
16625;DHT22;8426;48.496;9.098;2022-12-18T22:46:11;-4.30;99.90
16625;DHT22;8426;48.496;9.098;2022-12-18T22:51:19;-4.20;99.90
16625;DHT22;8426;48.496;9.098;2022-12-18T22:56:23;-4.20;99.90
16625;DHT22;8426;48.496;9.098;2022-12-18T23:01:28;-4.10;99.90
16625;DHT22;8426;48.496;9.098;2022-12-18T23:06:34;-4.10;99.90
16625;DHT22;8426;48.496;9.098;2022-12-18T23:11:38;-4.10;99.90
16625;DHT22;8426;48.496;9.098;2022-12-18T23:16:41;-4.00;99.90
16625;DHT22;8426;48.496;9.098;2022-12-18T23:21:48;-4.00;99.90
16625;DHT22;8426;48.496;9.098;2022-12-18T23:26:51;-3.90;99.90
16625;DHT22;8426;48.496;9.098;2022-12-18T23:31:55;-3.90;99.90
16625;DHT22;8426;48.496;9.098;2022-12-18T23:37:00;-3.90;99.90
16625;DHT22;8426;48.496;9.098;2022-12-18T23:42:05;-3.90;99.90
16625;DHT22;8426;48.496;9.098;2022-12-18T23:47:08;-3.80;99.90
16625;DHT22;8426;48.496;9.098;2022-12-18T23:52:13;-3.60;99.90
16625;DHT22;8426;48.496;9.098;2022-12-18T23:57:17;-3.60;99.90
